Time;durP1;ratioP1;P1;durP2;ratioP2;P2;SDS_P1;SDS_P2;PMS_P1;PMS_P2;Temp;Humidity;BMP_temperature;BMP_pressure;BME280_temperature;BME280_humidity;BME280_pressure;Samples;Min_cycle;Max_cycle;Signal;HPM_P1;HPM_P2
2021/04/06 00:00:53;;;;;;;9.43;1.40;;;2.20;99.90;;;;;;4936611;29;20186;-78
2021/04/06 00:03:25;;;;;;;17.73;1.53;;;2.20;99.90;;;;;;4936636;29;20278;-77
2021/04/06 00:05:55;;;;;;;10.10;1.60;;;2.30;99.90;;;;;;4936839;29;20661;-78
2021/04/06 00:08:22;;;;;;;8.53;1.50;;;2.20;99.90;;;;;;4954204;28;20668;-78
2021/04/06 00:10:51;;;;;;;14.60;2.17;;;2.30;99.90;;;;;;4936518;29;20187;-78
2021/04/06 00:13:18;;;;;;;10.20;2.00;;;2.20;99.90;;;;;;4954082;29;20183;-78
2021/04/06 00:15:45;;;;;;;11.77;2.50;;;2.30;99.90;;;;;;4936601;29;20666;-77
2021/04/06 00:18:14;;;;;;;17.17;3.37;;;2.30;99.90;;;;;;4936428;29;20199;-77
2021/04/06 00:20:41;;;;;;;15.93;2.47;;;2.20;99.90;;;;;;4936617;29;20183;-82
2021/04/06 00:23:09;;;;;;;11.80;2.30;;;2.30;99.90;;;;;;4936792;29;20187;-78
2021/04/06 00:25:38;;;;;;;19.00;3.53;;;2.30;99.90;;;;;;4936832;29;20261;-78
2021/04/06 00:28:07;;;;;;;16.57;2.73;;;2.30;99.90;;;;;;4936533;29;20213;-77
2021/04/06 00:30:35;;;;;;;14.97;1.83;;;2.30;99.90;;;;;;4936528;29;20660;-77
2021/04/06 00:33:18;;;;;;;13.47;2.50;;;2.30;99.90;;;;;;4936689;29;20194;-77
2021/04/06 00:35:51;;;;;;;12.47;2.33;;;2.30;99.90;;;;;;4936171;29;20206;-77
2021/04/06 00:38:17;;;;;;;12.10;1.73;;;2.30;99.90;;;;;;4936372;29;20199;-77
2021/04/06 00:40:47;;;;;;;13.10;2.43;;;2.30;99.90;;;;;;4955493;28;20188;-77
2021/04/06 00:43:14;;;;;;;15.07;2.27;;;2.30;99.90;;;;;;4939768;29;20183;-78
2021/04/06 00:45:43;;;;;;;12.03;2.17;;;2.30;99.90;;;;;;4957087;29;20183;-78
2021/04/06 00:48:16;;;;;;;15.37;3.00;;;2.30;99.90;;;;;;4939601;29;20209;-80
2021/04/06 00:51:07;;;;;;;15.93;2.67;;;2.40;99.90;;;;;;4939627;29;20185;-78
2021/04/06 00:53:53;;;;;;;10.40;2.27;;;2.40;99.90;;;;;;4939516;29;20183;-80
2021/04/06 00:56:21;;;;;;;14.97;2.47;;;2.30;99.90;;;;;;4939654;29;20179;-77
2021/04/06 00:58:51;;;;;;;16.83;2.67;;;2.30;99.90;;;;;;4939269;29;20195;-82
2021/04/06 01:01:37;;;;;;;17.40;3.00;;;2.30;99.90;;;;;;4939412;29;20222;-79
2021/04/06 01:04:14;;;;;;;14.27;2.57;;;2.30;99.90;;;;;;4939480;29;20195;-79
2021/04/06 01:06:54;;;;;;;10.53;2.20;;;2.40;99.90;;;;;;4939495;29;20175;-77
2021/04/06 01:09:40;;;;;;;12.80;2.53;;;2.30;99.90;;;;;;4939277;29;20293;-78
2021/04/06 01:12:08;;;;;;;13.70;2.07;;;2.30;99.90;;;;;;4939348;29;20183;-77
2021/04/06 01:14:35;;;;;;;13.10;2.90;;;2.40;99.90;;;;;;4939278;29;20215;-79
2021/04/06 01:17:03;;;;;;;14.83;2.33;;;2.30;99.90;;;;;;4939376;29;20190;-78
2021/04/06 01:19:30;;;;;;;16.63;2.67;;;2.30;99.90;;;;;;4938708;29;20205;-77
2021/04/06 01:21:57;;;;;;;17.23;2.97;;;2.30;99.90;;;;;;4956327;29;20661;-77
2021/04/06 01:24:26;;;;;;;10.33;2.47;;;2.30;99.90;;;;;;4938971;29;20753;-77
2021/04/06 01:26:52;;;;;;;17.93;3.10;;;2.30;99.90;;;;;;4939108;29;20214;-78
2021/04/06 01:29:17;;;;;;;12.27;2.63;;;2.30;99.90;;;;;;4938704;29;20237;-78
2021/04/06 01:31:43;;;;;;;14.60;2.33;;;2.30;99.90;;;;;;4938988;29;20186;-77
2021/04/06 01:34:09;;;;;;;16.50;2.83;;;2.20;99.90;;;;;;4955518;29;20628;-78
2021/04/06 01:36:35;;;;;;;11.77;2.23;;;2.20;99.90;;;;;;4938950;29;20178;-79
2021/04/06 01:39:01;;;;;;;14.80;2.57;;;2.30;99.90;;;;;;4938856;29;20591;-78
2021/04/06 01:41:27;;;;;;;10.93;2.73;;;2.30;99.90;;;;;;4938914;29;20179;-77
2021/04/06 01:43:53;;;;;;;15.70;2.40;;;2.20;99.90;;;;;;4938655;29;20238;-78
2021/04/06 01:46:32;;;;;;;14.90;2.60;;;2.20;99.90;;;;;;4938882;29;20255;-77
2021/04/06 01:48:59;;;;;;;10.17;1.87;;;2.20;99.90;;;;;;4938411;29;20312;-80
2021/04/06 01:51:24;;;;;;;12.43;2.70;;;2.10;99.90;;;;;;4938524;29;20183;-78
2021/04/06 01:53:50;;;;;;;10.13;2.10;;;2.20;99.90;;;;;;4938678;29;20190;-78
2021/04/06 01:56:23;;;;;;;17.20;2.50;;;2.10;99.90;;;;;;4938257;29;20222;-77
2021/04/06 01:58:53;;;;;;;9.90;1.70;;;2.10;99.90;;;;;;4938210;29;20205;-78
2021/04/06 02:01:22;;;;;;;12.73;1.90;;;2.10;99.90;;;;;;4938344;29;20532;-79
2021/04/06 02:04:01;;;;;;;10.90;1.83;;;2.10;99.90;;;;;;4938365;29;20207;-78
2021/04/06 02:06:29;;;;;;;13.00;2.60;;;2.20;99.90;;;;;;4938493;29;20175;-78
2021/04/06 02:08:56;;;;;;;7.90;1.60;;;2.20;99.90;;;;;;4938118;29;20585;-78
2021/04/06 02:11:31;;;;;;;17.37;2.63;;;2.20;99.90;;;;;;4938133;29;20179;-77
2021/04/06 02:14:16;;;;;;;12.77;1.70;;;2.10;99.90;;;;;;4938080;29;20637;-77
2021/04/06 02:16:57;;;;;;;12.67;1.63;;;2.20;99.90;;;;;;4938211;29;20178;-78
2021/04/06 02:19:36;;;;;;;12.33;1.73;;;2.10;99.90;;;;;;4937933;29;20202;-77
2021/04/06 02:22:09;;;;;;;11.07;2.57;;;2.10;99.90;;;;;;4938409;29;20209;-77
2021/04/06 02:24:39;;;;;;;9.63;1.40;;;2.10;99.90;;;;;;4938208;29;20226;-81
2021/04/06 02:27:29;;;;;;;8.07;1.57;;;2.00;99.90;;;;;;4937968;29;20183;-77
2021/04/06 02:30:01;;;;;;;12.53;2.50;;;2.00;99.90;;;;;;4937054;29;20199;-79
2021/04/06 02:32:27;;;;;;;11.90;2.33;;;2.00;99.90;;;;;;4937922;29;20230;-78
2021/04/06 02:34:56;;;;;;;11.30;1.87;;;1.90;99.90;;;;;;4937311;29;20214;-79
2021/04/06 02:37:23;;;;;;;12.40;2.33;;;1.90;99.90;;;;;;4937694;28;20179;-79
2021/04/06 02:39:51;;;;;;;8.10;1.60;;;2.00;99.90;;;;;;4937575;29;20179;-78
2021/04/06 02:42:20;;;;;;;9.27;2.03;;;2.00;99.90;;;;;;4937631;29;20187;-78
2021/04/06 02:44:46;;;;;;;12.07;1.80;;;2.00;99.90;;;;;;4937359;29;20186;-78
2021/04/06 02:47:12;;;;;;;8.80;1.73;;;2.00;99.90;;;;;;4937603;28;20183;-78
2021/04/06 02:49:38;;;;;;;14.03;2.53;;;2.00;99.90;;;;;;4937345;29;20264;-79
2021/04/06 02:52:04;;;;;;;19.27;3.00;;;2.00;99.90;;;;;;4937562;29;20183;-79
2021/04/06 02:54:30;;;;;;;10.67;2.57;;;2.00;99.90;;;;;;4937674;29;20801;-79
2021/04/06 02:56:56;;;;;;;12.63;2.10;;;2.00;99.90;;;;;;4937623;29;20179;-80
2021/04/06 02:59:22;;;;;;;15.47;2.80;;;2.00;99.90;;;;;;4937048;29;20205;-76
2021/04/06 03:01:57;;;;;;;16.43;2.93;;;2.00;99.90;;;;;;4937144;28;20179;-78
2021/04/06 03:04:25;;;;;;;12.03;2.80;;;1.80;99.90;;;;;;4936977;29;20179;-78
2021/04/06 03:06:58;;;;;;;17.10;3.60;;;1.90;99.90;;;;;;4937303;29;20219;-78
2021/04/06 03:09:25;;;;;;;11.60;2.20;;;1.80;99.90;;;;;;4937328;29;20199;-79
2021/04/06 03:11:53;;;;;;;12.43;1.93;;;1.90;99.90;;;;;;4936894;29;20226;-78
2021/04/06 03:14:20;;;;;;;11.27;1.90;;;1.90;99.90;;;;;;4937092;29;20559;-78
2021/04/06 03:16:49;;;;;;;7.80;1.60;;;1.80;99.90;;;;;;4937408;29;20186;-78
2021/04/06 03:19:14;;;;;;;7.23;1.70;;;1.80;99.90;;;;;;4937049;29;20205;-82
2021/04/06 03:21:42;;;;;;;7.63;2.20;;;1.80;99.90;;;;;;4937168;29;20190;-78
2021/04/06 03:24:08;;;;;;;7.73;1.53;;;1.80;99.90;;;;;;4937211;29;20253;-79
2021/04/06 03:26:34;;;;;;;7.53;1.33;;;1.80;99.90;;;;;;4937141;29;20585;-78
2021/04/06 03:29:01;;;;;;;5.80;1.30;;;1.80;99.90;;;;;;4936876;29;20202;-78
2021/04/06 03:31:28;;;;;;;9.77;1.50;;;1.80;99.90;;;;;;4937082;29;20670;-78
2021/04/06 03:33:56;;;;;;;10.33;1.73;;;1.80;99.90;;;;;;4936752;29;20171;-78
2021/04/06 03:36:24;;;;;;;12.07;1.77;;;1.80;99.90;;;;;;4936946;29;20755;-78
2021/04/06 03:38:55;;;;;;;13.70;1.53;;;1.70;99.90;;;;;;4936783;29;20199;-77
2021/04/06 03:41:26;;;;;;;12.30;1.80;;;1.70;99.90;;;;;;4936958;29;20179;-77
2021/04/06 03:43:52;;;;;;;7.60;1.63;;;1.70;99.90;;;;;;4936845;29;20178;-78
2021/04/06 03:46:25;;;;;;;11.93;1.73;;;1.80;99.90;;;;;;4936831;29;20190;-78
2021/04/06 03:48:51;;;;;;;10.20;1.80;;;1.70;99.90;;;;;;4936513;29;20293;-78
2021/04/06 03:51:28;;;;;;;8.80;1.30;;;1.70;99.90;;;;;;4936930;29;20179;-80
2021/04/06 03:53:56;;;;;;;10.93;1.80;;;1.60;99.90;;;;;;4937264;29;20202;-79
2021/04/06 03:56:32;;;;;;;12.53;1.43;;;1.60;99.90;;;;;;4936756;29;20214;-77
2021/04/06 03:59:00;;;;;;;9.60;1.83;;;1.60;99.90;;;;;;4936962;29;20233;-79
2021/04/06 04:01:26;;;;;;;8.13;1.43;;;1.60;99.90;;;;;;4937123;29;20179;-76
2021/04/06 04:03:53;;;;;;;11.63;1.60;;;1.60;99.90;;;;;;4937008;29;20182;-77
2021/04/06 04:06:26;;;;;;;8.10;1.50;;;1.60;99.90;;;;;;4954126;29;20178;-77
2021/04/06 04:08:52;;;;;;;9.37;1.77;;;1.60;99.90;;;;;;4937000;29;20206;-78
2021/04/06 04:11:19;;;;;;;9.60;1.33;;;1.60;99.90;;;;;;4936985;29;20211;-79
2021/04/06 04:13:45;;;;;;;6.17;1.20;;;1.60;99.90;;;;;;4937499;28;20179;-78
2021/04/06 04:16:10;;;;;;;8.60;1.17;;;1.60;99.90;;;;;;4940496;29;20700;-79
2021/04/06 04:18:36;;;;;;;6.87;1.17;;;1.60;99.90;;;;;;4940411;29;20206;-79
2021/04/06 04:21:03;;;;;;;5.43;1.07;;;1.60;99.90;;;;;;4940450;29;20207;-79
2021/04/06 04:23:29;;;;;;;4.40;1.00;;;1.50;99.90;;;;;;4940389;29;20633;-78
2021/04/06 04:25:55;;;;;;;5.90;1.10;;;1.50;99.90;;;;;;4940486;29;20219;-77
2021/04/06 04:28:20;;;;;;;3.73;0.83;;;1.60;99.90;;;;;;4940635;29;20245;-80
2021/04/06 04:30:51;;;;;;;5.43;1.27;;;1.60;99.90;;;;;;4940343;29;20276;-78
2021/04/06 04:33:16;;;;;;;8.90;1.20;;;1.60;99.90;;;;;;4940576;29;20175;-79
2021/04/06 04:35:42;;;;;;;6.23;1.13;;;1.60;99.90;;;;;;4939698;29;20218;-78
2021/04/06 04:38:09;;;;;;;4.23;1.00;;;1.60;99.90;;;;;;4940370;29;20250;-78
2021/04/06 04:40:35;;;;;;;8.27;1.17;;;1.50;99.90;;;;;;4939988;29;20186;-78
2021/04/06 04:43:02;;;;;;;12.50;1.80;;;1.60;99.90;;;;;;4940414;29;20194;-78
2021/04/06 04:45:27;;;;;;;6.60;1.27;;;1.60;99.90;;;;;;4939957;29;20179;-77
2021/04/06 04:47:53;;;;;;;10.43;1.40;;;1.50;99.90;;;;;;4939942;29;20669;-78
2021/04/06 04:50:21;;;;;;;6.33;1.10;;;1.50;99.90;;;;;;4939548;29;20650;-77
2021/04/06 04:52:47;;;;;;;4.90;1.07;;;1.50;99.90;;;;;;4939846;29;20187;-76
2021/04/06 04:55:22;;;;;;;8.13;1.23;;;1.50;99.90;;;;;;4939739;29;20266;-77
2021/04/06 04:57:48;;;;;;;8.80;2.30;;;1.50;99.90;;;;;;4939877;29;20269;-77
2021/04/06 05:00:15;;;;;;;10.47;1.63;;;1.50;99.90;;;;;;4939876;29;20266;-78
2021/04/06 05:02:41;;;;;;;8.03;1.30;;;1.60;99.90;;;;;;4933616;29;20179;-78
2021/04/06 05:05:08;;;;;;;11.00;1.60;;;1.60;99.90;;;;;;4937485;29;20234;-77
2021/04/06 05:07:37;;;;;;;10.87;1.50;;;1.60;99.90;;;;;;4956635;28;20734;-76
2021/04/06 05:10:04;;;;;;;6.90;1.07;;;1.60;99.90;;;;;;4938710;29;20600;-77
2021/04/06 05:12:30;;;;;;;10.63;1.70;;;1.60;99.90;;;;;;4933710;29;20186;-77
2021/04/06 05:14:56;;;;;;;6.83;1.23;;;1.60;99.90;;;;;;4939213;29;20222;-77
2021/04/06 05:17:22;;;;;;;15.07;1.60;;;1.60;99.90;;;;;;4939330;28;20179;-77
2021/04/06 05:19:47;;;;;;;9.23;1.30;;;1.60;99.90;;;;;;4939195;29;20187;-79
2021/04/06 05:22:13;;;;;;;13.70;2.37;;;1.70;99.90;;;;;;4939219;29;20195;-78
2021/04/06 05:24:38;;;;;;;11.40;1.77;;;1.70;99.90;;;;;;4939316;29;20554;-77
2021/04/06 05:27:04;;;;;;;6.10;1.17;;;1.70;99.90;;;;;;4938701;29;20645;-77
2021/04/06 05:29:30;;;;;;;13.53;1.83;;;1.80;99.90;;;;;;4938917;29;20577;-77
2021/04/06 05:31:56;;;;;;;5.63;1.00;;;1.80;99.90;;;;;;4939210;29;20190;-77
2021/04/06 05:34:21;;;;;;;6.77;1.33;;;1.80;99.90;;;;;;4938303;29;20270;-77
2021/04/06 05:36:47;;;;;;;4.63;1.20;;;1.90;99.90;;;;;;4939108;29;20179;-77
2021/04/06 05:39:13;;;;;;;7.13;1.07;;;1.90;99.90;;;;;;4938702;29;20254;-77
2021/04/06 05:41:44;;;;;;;7.37;1.40;;;1.90;99.90;;;;;;4938723;29;20183;-78
2021/04/06 05:44:10;;;;;;;5.60;0.83;;;2.00;99.90;;;;;;4939297;29;20189;-77
2021/04/06 05:46:38;;;;;;;6.70;1.00;;;2.00;99.90;;;;;;4938789;29;20279;-77
2021/04/06 05:49:11;;;;;;;5.93;1.00;;;2.10;99.90;;;;;;4938588;29;20199;-77
2021/04/06 05:51:41;;;;;;;4.33;0.80;;;2.10;99.90;;;;;;4927189;29;20187;-77
2021/04/06 05:54:09;;;;;;;4.13;0.87;;;2.20;99.90;;;;;;4938632;29;20258;-77
2021/04/06 05:56:35;;;;;;;4.57;0.53;;;2.20;99.90;;;;;;4938680;29;20185;-77
2021/04/06 05:59:00;;;;;;;3.87;0.80;;;2.20;99.90;;;;;;4942917;28;20274;-75
2021/04/06 06:01:30;;;;;;;9.27;1.07;;;2.30;99.90;;;;;;4934923;29;20187;-77
2021/04/06 06:03:57;;;;;;;10.03;1.10;;;2.30;99.90;;;;;;4936916;29;20183;-77
2021/04/06 06:06:23;;;;;;;5.77;0.80;;;2.30;99.90;;;;;;4940102;29;20183;-76
2021/04/06 06:08:53;;;;;;;6.23;1.00;;;2.40;99.90;;;;;;4938844;28;20214;-77
2021/04/06 06:11:19;;;;;;;7.97;1.57;;;2.40;99.90;;;;;;4954576;29;20682;-77
2021/04/06 06:13:45;;;;;;;9.03;1.90;;;2.50;99.90;;;;;;4952029;29;20654;-76
2021/04/06 06:16:21;;;;;;;8.67;1.20;;;2.50;99.90;;;;;;4935875;29;20202;-78
2021/04/06 06:18:51;;;;;;;7.20;1.00;;;2.50;99.90;;;;;;4935973;29;20574;-76
2021/04/06 06:21:17;;;;;;;6.40;1.33;;;2.50;99.90;;;;;;4938930;29;20209;-76
2021/04/06 06:23:43;;;;;;;5.87;1.17;;;2.70;99.90;;;;;;4933874;29;20183;-77
2021/04/06 06:26:13;;;;;;;6.07;1.00;;;2.70;99.90;;;;;;4947717;29;20237;-77
2021/04/06 06:28:38;;;;;;;6.20;1.07;;;2.80;99.90;;;;;;4936194;29;20203;-77
2021/04/06 06:31:05;;;;;;;7.27;1.17;;;2.90;99.90;;;;;;4951288;29;20189;-76
2021/04/06 06:33:33;;;;;;;7.27;1.10;;;3.00;99.90;;;;;;4940873;29;20187;-78
2021/04/06 06:36:03;;;;;;;7.33;1.07;;;3.00;99.90;;;;;;4931619;29;20212;-77
2021/04/06 06:38:42;;;;;;;11.50;1.33;;;3.10;99.90;;;;;;4935503;29;20227;-77
2021/04/06 06:41:11;;;;;;;7.17;1.00;;;3.10;99.90;;;;;;4945757;29;20245;-77
2021/04/06 06:43:37;;;;;;;3.47;1.00;;;3.20;99.90;;;;;;4945267;29;20211;-76
2021/04/06 06:46:03;;;;;;;6.63;1.00;;;3.20;99.90;;;;;;4930479;29;20191;-78
2021/04/06 06:48:31;;;;;;;6.63;0.90;;;3.30;99.90;;;;;;4933089;29;20203;-77
2021/04/06 06:51:03;;;;;;;5.00;0.90;;;3.30;99.90;;;;;;4932395;29;20191;-78
2021/04/06 06:53:37;;;;;;;8.80;1.50;;;3.30;99.90;;;;;;4934147;29;20660;-77
2021/04/06 06:56:05;;;;;;;11.77;1.70;;;3.40;99.90;;;;;;4934522;29;20260;-77
2021/04/06 06:58:32;;;;;;;11.47;1.20;;;3.40;99.90;;;;;;4927683;29;20203;-77
2021/04/06 07:00:58;;;;;;;5.33;1.40;;;3.50;99.90;;;;;;4939913;29;20191;-79
2021/04/06 07:03:23;;;;;;;5.80;0.77;;;3.60;99.90;;;;;;4930147;29;20254;-79
2021/04/06 07:05:49;;;;;;;8.70;1.10;;;3.70;99.90;;;;;;4949640;29;20728;-78
2021/04/06 07:08:27;;;;;;;9.27;1.20;;;3.80;99.90;;;;;;4946486;28;20244;-79
2021/04/06 07:10:54;;;;;;;7.77;1.10;;;3.90;99.90;;;;;;4933097;29;20195;-77
2021/04/06 07:13:23;;;;;;;11.63;1.93;;;3.90;99.90;;;;;;4934619;29;20234;-78
2021/04/06 07:15:50;;;;;;;12.33;1.57;;;3.90;99.90;;;;;;4930533;29;20294;-76
2021/04/06 07:18:22;;;;;;;12.37;1.43;;;3.80;99.90;;;;;;4937081;28;20207;-78
2021/04/06 07:20:56;;;;;;;7.20;1.07;;;3.90;99.90;;;;;;4919770;29;20192;-80
2021/04/06 07:24:00;;;;;;;10.73;1.67;;;4.10;99.90;;;;;;4929192;29;20601;-77
2021/04/06 07:26:26;;;;;;;10.57;1.57;;;4.30;99.90;;;;;;4931875;29;20281;-78
2021/04/06 07:28:52;;;;;;;11.73;1.87;;;4.10;99.90;;;;;;4932081;29;20207;-77
2021/04/06 07:31:18;;;;;;;5.97;1.20;;;3.90;99.90;;;;;;4927943;29;20190;-76
2021/04/06 07:33:48;;;;;;;9.27;1.10;;;4.10;99.90;;;;;;4919224;29;20186;-77
2021/04/06 07:36:16;;;;;;;7.60;1.00;;;4.00;99.90;;;;;;4919734;29;20309;-78
2021/04/06 07:38:54;;;;;;;7.53;0.93;;;4.00;99.90;;;;;;4933610;29;20203;-78
2021/04/06 07:41:26;;;;;;;8.47;1.37;;;4.20;99.90;;;;;;4938316;29;20174;-76
2021/04/06 07:43:53;;;;;;;8.57;1.00;;;4.10;99.90;;;;;;4929768;29;20195;-77
2021/04/06 07:46:34;;;;;;;3.10;0.60;;;4.10;99.90;;;;;;4941944;29;20613;-76
2021/04/06 07:49:03;;;;;;;6.07;1.13;;;4.20;99.90;;;;;;4930851;29;20210;-79
2021/04/06 07:51:31;;;;;;;6.97;1.17;;;4.20;99.90;;;;;;4938244;29;20327;-78
2021/04/06 07:54:05;;;;;;;9.47;1.60;;;4.40;99.90;;;;;;4941726;29;20193;-76
2021/04/06 07:56:43;;;;;;;6.93;0.97;;;4.50;99.90;;;;;;4945323;29;20233;-76
2021/04/06 07:59:18;;;;;;;7.60;1.03;;;4.70;99.90;;;;;;4949701;28;20206;-77
2021/04/06 08:02:05;;;;;;;5.27;0.90;;;4.80;99.90;;;;;;4946440;29;20186;-78
2021/04/06 08:04:40;;;;;;;4.70;1.03;;;4.80;99.90;;;;;;4922042;29;20228;-77
2021/04/06 08:07:35;;;;;;;10.20;1.40;;;5.10;99.90;;;;;;4954008;29;20649;-77
2021/04/06 08:10:12;;;;;;;7.23;1.30;;;5.00;99.90;;;;;;4929117;28;20293;-79
2021/04/06 08:12:39;;;;;;;7.87;1.90;;;5.10;99.90;;;;;;4939343;29;20231;-76
2021/04/06 08:15:09;;;;;;;7.63;1.43;;;5.40;99.90;;;;;;4943580;29;20213;-77
2021/04/06 08:17:35;;;;;;;8.60;1.53;;;5.40;99.90;;;;;;4946166;29;20199;-79
2021/04/06 08:20:04;;;;;;;7.90;1.10;;;5.10;99.90;;;;;;4953730;29;20187;-78
2021/04/06 08:22:32;;;;;;;10.83;2.17;;;5.10;99.90;;;;;;4943295;29;20191;-79
2021/04/06 08:25:16;;;;;;;9.70;2.10;;;4.90;99.90;;;;;;4943224;29;20633;-78
2021/04/06 08:27:49;;;;;;;13.80;1.90;;;4.90;99.90;;;;;;4940482;29;20746;-78
2021/04/06 08:30:25;;;;;;;16.07;2.47;;;5.00;99.90;;;;;;4935244;29;20183;-79
2021/04/06 08:32:56;;;;;;;13.37;2.27;;;5.00;99.90;;;;;;4952761;29;20178;-78
2021/04/06 08:35:48;;;;;;;7.87;1.40;;;4.90;99.90;;;;;;4939096;29;20207;-78
2021/04/06 08:38:20;;;;;;;7.57;1.50;;;5.00;99.90;;;;;;4949294;28;20208;-78
2021/04/06 08:40:50;;;;;;;10.63;1.90;;;5.20;99.90;;;;;;4944488;29;20656;-76
2021/04/06 08:43:19;;;;;;;9.20;1.60;;;5.40;99.90;;;;;;4944054;29;20612;-77
2021/04/06 08:46:01;;;;;;;8.47;1.63;;;5.60;99.90;;;;;;4954200;29;20191;-78
2021/04/06 08:48:45;;;;;;;5.03;1.13;;;5.80;99.90;;;;;;4953349;28;20250;-76
2021/04/06 08:51:30;;;;;;;11.33;2.00;;;5.60;99.90;;;;;;4950012;29;20187;-79
2021/04/06 08:53:56;;;;;;;6.20;1.63;;;5.40;99.90;;;;;;4945169;29;20190;-78
2021/04/06 08:56:27;;;;;;;9.77;2.00;;;5.50;99.90;;;;;;4950162;29;20315;-77
2021/04/06 08:59:14;;;;;;;10.67;1.57;;;5.60;99.90;;;;;;4953583;28;20221;-78
2021/04/06 09:01:41;;;;;;;9.10;1.97;;;5.30;99.90;;;;;;4931214;29;20175;-78
2021/04/06 09:04:15;;;;;;;9.80;1.47;;;5.10;99.90;;;;;;4954619;29;20251;-78
2021/04/06 09:06:42;;;;;;;9.73;1.50;;;5.10;99.90;;;;;;4955314;29;20327;-79
2021/04/06 09:09:10;;;;;;;3.67;0.87;;;5.90;99.90;;;;;;4946795;28;20667;-78
2021/04/06 09:11:38;;;;;;;8.50;1.30;;;6.10;99.90;;;;;;4954925;29;20217;-79
2021/04/06 09:14:04;;;;;;;6.57;1.90;;;5.90;99.90;;;;;;4935654;29;20186;-80
2021/04/06 09:16:33;;;;;;;7.07;1.10;;;5.50;99.90;;;;;;4931359;29;20217;-77
2021/04/06 09:19:02;;;;;;;8.37;1.90;;;4.80;99.90;;;;;;4934901;29;20207;-78
2021/04/06 09:21:30;;;;;;;7.03;1.20;;;5.00;99.90;;;;;;4930076;29;20739;-80
2021/04/06 09:23:58;;;;;;;8.70;1.13;;;5.50;99.90;;;;;;4934747;29;20198;-79
2021/04/06 09:26:24;;;;;;;4.93;0.90;;;5.60;99.90;;;;;;4942882;29;20187;-78
2021/04/06 09:29:09;;;;;;;5.57;1.57;;;5.80;99.90;;;;;;4941923;29;20209;-78
2021/04/06 09:31:39;;;;;;;7.30;1.33;;;6.00;99.90;;;;;;4922628;29;20190;-78
2021/04/06 09:34:18;;;;;;;7.13;1.17;;;6.10;99.90;;;;;;4930150;29;20195;-79
2021/04/06 09:36:57;;;;;;;6.27;1.03;;;6.50;99.90;;;;;;4934437;28;20682;-78
2021/04/06 09:39:23;;;;;;;8.03;1.13;;;6.40;99.90;;;;;;4932314;28;20232;-78
2021/04/06 09:41:49;;;;;;;7.20;1.60;;;6.50;99.90;;;;;;4938178;29;20191;-77
2021/04/06 09:44:18;;;;;;;7.47;1.43;;;6.20;99.90;;;;;;4941691;29;20321;-77
2021/04/06 09:46:48;;;;;;;11.67;1.80;;;5.70;99.90;;;;;;4944822;29;20230;-78
2021/04/06 09:49:15;;;;;;;9.67;1.40;;;5.10;99.90;;;;;;4942542;28;20685;-78
2021/04/06 09:51:52;;;;;;;8.80;1.97;;;5.00;99.90;;;;;;4937403;29;20262;-78
2021/04/06 09:54:26;;;;;;;6.30;1.17;;;5.10;99.90;;;;;;4945985;29;20718;-79
2021/04/06 09:56:53;;;;;;;4.60;1.10;;;5.00;99.90;;;;;;4935419;29;20186;-78
2021/04/06 09:59:19;;;;;;;7.43;0.97;;;4.80;99.90;;;;;;4927761;29;20234;-78
2021/04/06 10:01:53;;;;;;;9.77;1.67;;;4.80;99.90;;;;;;4932695;29;20182;-77
2021/04/06 10:04:52;;;;;;;8.83;1.30;;;5.00;99.90;;;;;;4935701;29;20182;-78
2021/04/06 10:07:24;;;;;;;4.60;0.63;;;5.30;99.90;;;;;;4906774;28;20192;-78
2021/04/06 10:10:00;;;;;;;8.57;1.03;;;5.60;99.90;;;;;;4941879;29;20187;-80
2021/04/06 10:12:28;;;;;;;6.60;0.93;;;5.70;99.90;;;;;;4933112;29;20816;-78
2021/04/06 10:14:55;;;;;;;5.87;0.93;;;6.20;99.90;;;;;;4936211;29;20218;-79
2021/04/06 10:17:23;;;;;;;7.97;1.30;;;6.20;99.90;;;;;;4936662;28;20175;-76
2021/04/06 10:20:12;;;;;;;8.48;1.45;;;5.90;99.90;;;;;;4930797;29;20462;-78
2021/04/06 10:22:50;;;;;;;11.37;1.43;;;5.70;99.90;;;;;;4951892;28;20199;-77
2021/04/06 10:25:18;;;;;;;6.03;1.20;;;5.60;99.90;;;;;;4945762;29;20337;-79
2021/04/06 10:27:50;;;;;;;6.57;1.10;;;5.20;99.90;;;;;;4937343;29;20201;-78
2021/04/06 10:30:30;;;;;;;9.70;1.33;;;5.10;99.90;;;;;;4921435;29;20180;-79
2021/04/06 10:33:07;;;;;;;9.23;1.10;;;5.40;99.90;;;;;;4924718;29;20233;-78
2021/04/06 10:35:37;;;;;;;6.13;1.17;;;5.70;99.90;;;;;;4930537;29;20198;-80
2021/04/06 10:38:05;;;;;;;4.37;0.70;;;5.60;99.90;;;;;;4944479;28;20207;-80
2021/04/06 10:40:33;;;;;;;7.97;1.07;;;5.40;99.90;;;;;;4945047;29;20175;-80
2021/04/06 10:43:21;;;;;;;5.40;1.00;;;5.70;99.90;;;;;;4942356;29;20599;-79
2021/04/06 10:45:49;;;;;;;5.83;0.93;;;5.50;99.90;;;;;;4947684;29;20303;-80
2021/04/06 10:48:19;;;;;;;7.10;0.97;;;5.70;99.90;;;;;;4944558;29;20216;-77
2021/04/06 10:50:53;;;;;;;4.97;0.80;;;5.70;99.90;;;;;;4945172;29;20221;-79
2021/04/06 10:53:26;;;;;;;4.13;0.50;;;5.20;99.90;;;;;;4953373;29;20187;-78
2021/04/06 10:56:16;;;;;;;6.37;0.50;;;4.70;99.90;;;;;;4939798;29;20708;-78
2021/04/06 10:58:48;;;;;;;3.88;0.57;;;4.00;99.90;;;;;;4945919;28;20443;-79
2021/04/06 11:01:17;;;;;;;2.77;0.40;;;4.10;99.90;;;;;;4945852;29;20185;-78
2021/04/06 11:03:53;;;;;;;3.07;0.80;;;4.50;99.90;;;;;;4948155;29;20229;-79
2021/04/06 11:06:31;;;;;;;6.47;1.20;;;4.70;99.90;;;;;;4944159;29;20184;-76
2021/04/06 11:08:58;;;;;;;6.77;0.80;;;4.20;99.90;;;;;;4955183;28;20217;-77
2021/04/06 11:11:27;;;;;;;7.07;1.00;;;4.20;99.90;;;;;;4937311;29;20185;-77
2021/04/06 11:13:55;;;;;;;9.10;1.10;;;4.00;99.90;;;;;;4938411;29;20222;-77
2021/04/06 11:16:21;;;;;;;5.63;0.87;;;4.00;99.90;;;;;;4936953;29;20231;-77
2021/04/06 11:19:06;;;;;;;6.50;1.10;;;3.80;99.90;;;;;;4940616;29;20210;-77
2021/04/06 11:21:34;;;;;;;5.67;0.90;;;3.50;99.90;;;;;;4951032;29;20500;-77
2021/04/06 11:23:59;;;;;;;9.63;0.80;;;3.40;99.90;;;;;;4937311;29;20599;-75
2021/04/06 11:26:25;;;;;;;4.70;0.80;;;3.50;99.90;;;;;;4939324;29;20210;-77
2021/04/06 11:28:51;;;;;;;6.33;0.73;;;3.60;99.90;;;;;;4955977;28;20493;-74
2021/04/06 11:31:17;;;;;;;7.87;0.93;;;3.50;99.90;;;;;;4955890;28;20608;-76
2021/04/06 11:33:42;;;;;;;5.93;1.00;;;3.40;99.90;;;;;;4955675;29;20187;-75
2021/04/06 11:36:09;;;;;;;4.87;0.80;;;3.50;99.90;;;;;;4942744;29;20206;-77
2021/04/06 11:38:34;;;;;;;5.30;0.87;;;3.70;99.90;;;;;;4938197;29;20661;-78
2021/04/06 11:41:00;;;;;;;4.83;0.80;;;3.70;99.90;;;;;;4947116;29;20182;-79
2021/04/06 11:43:26;;;;;;;6.73;1.03;;;3.80;99.90;;;;;;4948150;29;20175;-79
2021/04/06 11:45:51;;;;;;;2.93;0.60;;;4.00;99.90;;;;;;4936248;29;20190;-81
2021/04/06 11:48:17;;;;;;;6.10;0.90;;;4.00;99.90;;;;;;4947669;28;20346;-79
2021/04/06 11:50:43;;;;;;;6.33;0.90;;;3.80;99.90;;;;;;4940242;29;20221;-80
2021/04/06 11:53:09;;;;;;;3.93;0.80;;;4.10;99.90;;;;;;4940410;29;20654;-79
2021/04/06 11:55:35;;;;;;;4.03;0.70;;;4.30;99.90;;;;;;4936850;29;20214;-81
2021/04/06 11:58:00;;;;;;;4.33;0.53;;;4.50;99.90;;;;;;4936334;29;20242;-78
2021/04/06 12:00:26;;;;;;;5.93;0.70;;;4.60;99.90;;;;;;4940011;29;20178;-79
2021/04/06 12:02:51;;;;;;;5.20;0.77;;;4.90;99.90;;;;;;4937734;29;20198;-82
2021/04/06 12:05:17;;;;;;;5.77;0.80;;;5.10;99.90;;;;;;4934707;29;20183;-80
2021/04/06 12:07:43;;;;;;;5.53;0.80;;;5.10;99.90;;;;;;4943948;29;20241;-80
2021/04/06 12:10:10;;;;;;;4.80;0.90;;;5.10;99.90;;;;;;4941235;29;20242;-79
2021/04/06 12:12:36;;;;;;;4.97;0.40;;;5.20;99.90;;;;;;4944151;29;20282;-77
2021/04/06 12:15:02;;;;;;;7.10;1.40;;;4.70;99.90;;;;;;4938292;29;20302;-77
2021/04/06 12:17:27;;;;;;;5.07;0.80;;;4.60;99.90;;;;;;4939841;28;20206;-77
2021/04/06 12:19:53;;;;;;;7.67;0.77;;;4.60;99.90;;;;;;4940516;29;20194;-77
2021/04/06 12:22:18;;;;;;;3.37;0.87;;;4.50;99.90;;;;;;4931896;29;20196;-76
2021/04/06 12:24:44;;;;;;;3.50;0.87;;;4.40;99.90;;;;;;4948829;29;20191;-76
2021/04/06 12:27:09;;;;;;;1.47;0.30;;;4.60;99.90;;;;;;4946112;29;20771;-78
2021/04/06 12:29:35;;;;;;;2.57;0.60;;;4.50;99.90;;;;;;4927808;29;20210;-77
2021/04/06 12:32:00;;;;;;;0.70;0.20;;;4.40;99.90;;;;;;4935339;29;20195;-78
2021/04/06 12:34:26;;;;;;;7.10;2.53;;;4.20;99.90;;;;;;4939248;29;20181;-75
2021/04/06 12:36:52;;;;;;;3.77;0.40;;;4.40;99.90;;;;;;4942230;29;20214;-77
2021/04/06 12:39:17;;;;;;;6.17;0.50;;;4.50;99.90;;;;;;4934170;29;20291;-79
2021/04/06 12:41:43;;;;;;;3.97;0.60;;;4.40;99.90;;;;;;4955895;29;20233;-78
2021/04/06 12:44:09;;;;;;;3.50;0.63;;;4.40;99.90;;;;;;4942390;29;20542;-77
2021/04/06 12:46:34;;;;;;;5.10;0.73;;;4.40;99.90;;;;;;4951047;29;20276;-77
2021/04/06 12:49:00;;;;;;;4.43;0.53;;;4.30;99.90;;;;;;4940507;29;20239;-77
2021/04/06 12:51:26;;;;;;;4.43;0.50;;;4.30;99.90;;;;;;4956888;29;20260;-77
2021/04/06 12:53:52;;;;;;;4.90;0.83;;;4.80;99.90;;;;;;4935689;29;20274;-77
2021/04/06 12:56:18;;;;;;;8.63;1.60;;;4.90;99.90;;;;;;4945845;29;20274;-78
2021/04/06 12:58:43;;;;;;;8.17;1.27;;;5.30;99.90;;;;;;4953598;28;20229;-78
2021/04/06 13:01:09;;;;;;;2.77;0.30;;;5.40;99.90;;;;;;4956966;29;20206;-76
2021/04/06 13:03:35;;;;;;;3.30;0.20;;;4.50;99.90;;;;;;4951042;29;20194;-78
2021/04/06 13:06:00;;;;;;;6.70;1.53;;;3.80;99.90;;;;;;4948122;28;20313;-77